Time;durP1;ratioP1;P1;durP2;ratioP2;P2;SDS_P1;SDS_P2;PMS_P1;PMS_P2;Temp;Humidity;BMP_temperature;BMP_pressure;BME280_temperature;BME280_humidity;BME280_pressure;Samples;Min_cycle;Max_cycle;Signal;HPM_P1;HPM_P2
2022/01/06 00:00:28;;;;;;;13.37;4.17;;;;;;;4.63;65.12;96334.03;5063192;28;20224;-72
2022/01/06 00:02:54;;;;;;;18.77;4.40;;;;;;;4.14;66.56;96339.97;5066707;28;20694;-70
2022/01/06 00:05:20;;;;;;;8.77;4.07;;;;;;;4.14;67.00;96345.16;5064963;28;20455;-73
2022/01/06 00:07:46;;;;;;;16.17;4.23;;;;;;;4.59;65.21;96340.44;5074305;28;20999;-72
2022/01/06 00:10:13;;;;;;;11.87;3.77;;;;;;;4.28;66.46;96348.34;5073875;28;20196;-71
2022/01/06 00:12:51;;;;;;;8.43;3.90;;;;;;;4.52;65.58;96341.94;5074613;28;20170;-71
2022/01/06 00:15:39;;;;;;;11.27;4.73;;;;;;;4.36;66.76;96343.28;5064203;28;20475;-70
2022/01/06 00:26:02;;;;;;;15.77;4.83;;;;;;;4.71;66.13;96341.94;5063531;28;20436;-72
2022/01/06 00:28:28;;;;;;;11.17;4.60;;;;;;;4.27;67.12;96344.09;5067222;28;20421;-74
2022/01/06 00:30:54;;;;;;;10.80;5.00;;;;;;;4.54;66.48;96346.03;5057671;28;20445;-72
2022/01/06 00:33:20;;;;;;;13.40;4.93;;;;;;;3.67;68.83;96353.47;5060355;28;20174;-71
2022/01/06 00:35:45;;;;;;;7.17;4.17;;;;;;;3.83;69.12;96352.97;5071639;28;20549;-72
2022/01/06 00:38:11;;;;;;;10.03;4.10;;;;;;;4.14;67.30;96363.31;5082837;28;20194;-74
2022/01/06 00:40:37;;;;;;;10.50;4.13;;;;;;;4.00;67.86;96358.50;5078639;28;20207;-73
2022/01/06 00:43:04;;;;;;;10.43;4.90;;;;;;;4.09;67.84;96355.09;5062455;28;20183;-74
2022/01/06 00:45:30;;;;;;;9.30;4.30;;;;;;;4.58;66.43;96347.41;5080219;28;21014;-72
2022/01/06 00:47:57;;;;;;;9.40;4.20;;;;;;;4.72;65.51;96364.34;5073617;28;20428;-72
2022/01/06 00:50:22;;;;;;;9.57;3.90;;;;;;;4.66;65.76;96349.34;5074152;28;20523;-72
2022/01/06 00:52:48;;;;;;;11.63;4.63;;;;;;;4.85;65.53;96361.47;5074131;28;20554;-71
2022/01/06 00:55:14;;;;;;;12.67;4.83;;;;;;;4.64;66.13;96359.03;5065605;28;20190;-72
2022/01/06 00:57:40;;;;;;;11.50;4.80;;;;;;;4.39;67.26;96363.78;5073972;28;20432;-72
2022/01/06 01:00:06;;;;;;;8.60;4.63;;;;;;;4.45;66.51;96358.03;5073644;28;20465;-72
2022/01/06 01:02:32;;;;;;;11.33;4.50;;;;;;;4.29;67.10;96361.16;5073091;28;20615;-73
2022/01/06 01:04:58;;;;;;;15.17;4.30;;;;;;;4.38;66.90;96361.28;5064489;28;20418;-73
2022/01/06 01:07:23;;;;;;;11.97;4.30;;;;;;;4.14;67.36;96365.91;5073384;28;20194;-74
2022/01/06 01:09:49;;;;;;;9.20;4.83;;;;;;;4.15;67.85;96362.38;5074274;28;20227;-72
2022/01/06 01:12:14;;;;;;;14.23;4.60;;;;;;;3.92;67.40;96366.94;5073096;28;20605;-73
2022/01/06 01:14:56;;;;;;;9.77;4.53;;;;;;;4.19;66.95;96373.28;5072974;28;20182;-73
2022/01/06 01:17:25;;;;;;;16.30;5.13;;;;;;;4.21;67.25;96378.34;5073210;28;20182;-72
2022/01/06 01:19:50;;;;;;;9.33;4.53;;;;;;;3.93;67.57;96380.69;5070677;28;20817;-72
2022/01/06 01:22:16;;;;;;;7.57;4.07;;;;;;;4.44;66.59;96382.34;5069335;28;20420;-70
2022/01/06 01:24:41;;;;;;;12.90;4.30;;;;;;;4.52;67.02;96384.28;5066739;28;20187;-73
2022/01/06 01:27:07;;;;;;;9.33;4.00;;;;;;;4.62;66.17;96386.88;5070662;28;20182;-70
2022/01/06 01:29:40;;;;;;;18.77;4.80;;;;;;;4.49;66.68;96383.72;5072874;28;20549;-73
2022/01/06 01:32:06;;;;;;;12.23;4.90;;;;;;;4.19;68.28;96385.41;5067409;28;20967;-73
2022/01/06 01:34:32;;;;;;;9.53;4.03;;;;;;;4.66;65.50;96385.66;5071811;28;20508;-72
2022/01/06 01:36:58;;;;;;;11.13;4.30;;;;;;;3.90;67.92;96391.34;5072311;28;20196;-73
2022/01/06 01:39:24;;;;;;;9.20;4.27;;;;;;;4.35;67.86;96387.53;5063916;28;20561;-73
2022/01/06 01:41:50;;;;;;;12.23;4.80;;;;;;;4.03;68.25;96384.16;5072744;28;20213;-72
2022/01/06 01:44:18;;;;;;;10.23;4.67;;;;;;;4.45;66.76;96388.38;5071332;28;20937;-72
2022/01/06 01:46:57;;;;;;;10.63;4.40;;;;;;;4.25;68.60;96390.91;5072720;28;20437;-72
2022/01/06 01:51:48;;;;;;;9.53;5.10;;;;;;;4.27;69.79;96395.97;5072582;28;20480;-74
2022/01/06 01:54:13;;;;;;;17.20;4.87;;;;;;;4.51;68.72;96397.38;5069923;28;20190;-72
2022/01/06 01:56:39;;;;;;;11.80;4.70;;;;;;;4.23;69.69;96398.00;5050011;28;20178;-71
2022/01/06 01:59:05;;;;;;;8.40;4.20;;;;;;;4.50;68.45;96411.31;5071872;28;20178;-72
2022/01/06 02:01:30;;;;;;;13.00;5.40;;;;;;;4.85;67.46;96410.00;5071045;28;20210;-72
2022/01/06 02:03:56;;;;;;;7.03;4.53;;;;;;;4.64;68.36;96413.53;5072176;28;20179;-72
2022/01/06 02:06:22;;;;;;;20.10;5.20;;;;;;;4.12;70.01;96406.72;5072354;28;20417;-72
2022/01/06 02:08:48;;;;;;;16.27;4.73;;;;;;;4.17;69.52;96410.66;5072237;28;20188;-72
2022/01/06 02:11:14;;;;;;;11.53;5.23;;;;;;;4.22;70.12;96419.69;5071886;28;20448;-72
2022/01/06 02:13:50;;;;;;;9.63;5.33;;;;;;;4.22;69.67;96422.28;5072168;28;20187;-72
2022/01/06 02:16:20;;;;;;;8.97;5.20;;;;;;;4.52;69.10;96417.19;5072505;28;20182;-71
2022/01/06 02:18:47;;;;;;;11.83;5.03;;;;;;;3.92;71.65;96413.59;5071085;28;20990;-72
2022/01/06 02:21:12;;;;;;;10.93;5.10;;;;;;;4.07;70.16;96413.25;5069387;28;20545;-71
2022/01/06 02:23:38;;;;;;;10.23;5.10;;;;;;;4.43;69.49;96416.22;5067475;28;20452;-71
2022/01/06 02:26:03;;;;;;;7.23;5.60;;;;;;;4.23;70.04;96417.94;5063796;28;20183;-71
2022/01/06 02:28:29;;;;;;;10.27;5.20;;;;;;;4.54;69.64;96417.84;5071822;28;20205;-71
2022/01/06 02:30:57;;;;;;;8.00;5.00;;;;;;;4.68;68.81;96411.47;5071775;28;20201;-71
2022/01/06 02:33:24;;;;;;;10.37;5.57;;;;;;;4.66;68.36;96415.97;5066777;28;20544;-72
2022/01/06 02:35:49;;;;;;;12.00;5.77;;;;;;;4.71;67.80;96424.19;5070188;28;20509;-71
2022/01/06 02:38:16;;;;;;;9.03;4.40;;;;;;;4.74;67.55;96429.94;5071267;28;20448;-71
2022/01/06 02:40:42;;;;;;;9.27;4.63;;;;;;;4.32;68.88;96426.72;5070106;28;20269;-71
2022/01/06 02:43:07;;;;;;;21.83;4.93;;;;;;;4.51;69.15;96433.72;5064763;28;20421;-71
2022/01/06 02:45:34;;;;;;;9.43;5.37;;;;;;;4.34;69.17;96423.00;5065627;28;20179;-71
2022/01/06 02:48:08;;;;;;;11.13;4.60;;;;;;;4.50;68.60;96432.06;5071413;28;20259;-72
2022/01/06 02:50:45;;;;;;;10.13;4.60;;;;;;;4.58;69.09;96429.63;5063030;28;20456;-71
2022/01/06 02:53:12;;;;;;;8.40;5.00;;;;;;;4.35;68.94;96423.84;5037831;28;20601;-71
2022/01/06 02:55:40;;;;;;;11.33;4.80;;;;;;;4.80;68.37;96436.34;5021727;28;20945;-70
2022/01/06 02:58:06;;;;;;;19.10;5.00;;;;;;;3.96;71.57;96440.06;5042228;28;20424;-72
2022/01/06 03:00:35;;;;;;;11.10;4.77;;;;;;;4.34;69.78;96432.59;5069185;28;20468;-73
2022/01/06 03:03:01;;;;;;;10.77;4.20;;;;;;;4.63;68.76;96430.06;5072334;28;20186;-72
2022/01/06 03:05:27;;;;;;;10.03;4.67;;;;;;;4.66;68.02;96436.75;5071149;28;20419;-72
2022/01/06 03:07:52;;;;;;;9.03;4.30;;;;;;;4.44;69.07;96436.81;5070879;28;20728;-72
2022/01/06 03:10:18;;;;;;;7.97;3.70;;;;;;;4.98;67.96;96436.50;5070919;28;20299;-71
2022/01/06 03:12:45;;;;;;;7.13;4.00;;;;;;;4.37;69.05;96443.50;5070593;28;20182;-72
2022/01/06 03:15:14;;;;;;;7.80;3.80;;;;;;;4.21;68.94;96450.97;5070593;28;20190;-72
2022/01/06 03:17:41;;;;;;;8.13;3.30;;;;;;;4.39;68.88;96457.19;5061402;28;20428;-71
2022/01/06 03:20:09;;;;;;;6.37;3.80;;;;;;;4.33;69.25;96462.06;5070554;28;20496;-73
2022/01/06 03:22:35;;;;;;;9.53;4.30;;;;;;;4.39;68.59;96462.38;5067524;28;20416;-72
2022/01/06 03:25:00;;;;;;;6.53;3.80;;;;;;;4.46;69.45;96471.25;5062794;28;20436;-71
2022/01/06 03:27:26;;;;;;;8.43;4.53;;;;;;;4.26;69.06;96472.97;5070895;28;20228;-72
2022/01/06 03:29:52;;;;;;;9.53;3.87;;;;;;;4.52;68.67;96469.09;5069389;28;20667;-72
2022/01/06 03:32:19;;;;;;;6.43;3.60;;;;;;;4.59;67.83;96477.97;5038833;28;20302;-73
2022/01/06 03:34:45;;;;;;;6.50;3.60;;;;;;;4.12;69.77;96484.53;5051042;28;20417;-71
2022/01/06 03:37:11;;;;;;;7.43;4.30;;;;;;;4.19;70.15;96490.00;5073150;28;20519;-72
2022/01/06 03:39:37;;;;;;;8.70;4.90;;;;;;;4.22;69.79;96481.94;5056414;28;20423;-70
2022/01/06 03:42:03;;;;;;;9.33;4.00;;;;;;;4.51;69.04;96485.63;5056839;28;20819;-70
2022/01/06 03:44:29;;;;;;;6.50;3.93;;;;;;;4.55;68.63;96486.97;5074875;28;20182;-73
2022/01/06 03:46:54;;;;;;;9.33;4.63;;;;;;;4.70;68.35;96485.66;5074628;28;20535;-73
2022/01/06 03:49:20;;;;;;;8.80;4.47;;;;;;;4.39;69.22;96493.50;5073514;28;20183;-71
2022/01/06 03:51:46;;;;;;;7.73;4.23;;;;;;;4.35;69.25;96486.13;5073670;28;20198;-72
2022/01/06 03:54:11;;;;;;;6.60;3.67;;;;;;;4.23;69.30;96488.78;5071295;28;20235;-72
2022/01/06 03:56:37;;;;;;;9.27;4.33;;;;;;;4.44;69.68;96491.31;5068986;28;20500;-71
2022/01/06 03:59:03;;;;;;;8.70;4.50;;;;;;;4.15;69.86;96492.03;5074288;28;20191;-71
2022/01/06 04:01:28;;;;;;;15.10;4.13;;;;;;;4.33;70.33;96494.00;5074149;28;20202;-71
2022/01/06 04:03:54;;;;;;;6.97;4.10;;;;;;;4.41;69.46;96495.97;5074391;28;20178;-74
2022/01/06 04:06:20;;;;;;;8.60;4.10;;;;;;;4.40;69.05;96499.50;5074315;28;20186;-72
2022/01/06 04:08:45;;;;;;;7.80;4.03;;;;;;;4.37;69.89;96499.75;5073457;28;20185;-71
2022/01/06 04:11:11;;;;;;;6.83;4.50;;;;;;;4.07;71.20;96496.22;5072749;28;20202;-72
2022/01/06 04:13:36;;;;;;;7.53;4.17;;;;;;;4.29;70.47;96496.06;5074193;28;20179;-71
2022/01/06 04:16:06;;;;;;;9.20;4.17;;;;;;;3.98;71.60;96497.81;5073107;28;20187;-72
2022/01/06 04:18:32;;;;;;;11.00;4.87;;;;;;;3.91;71.82;96504.44;5059723;28;20661;-73
2022/01/06 04:20:58;;;;;;;8.93;4.77;;;;;;;3.76;72.77;96497.00;5065797;28;20575;-71
2022/01/06 04:23:23;;;;;;;6.23;4.53;;;;;;;3.86;72.12;96497.06;5065716;28;20539;-71
2022/01/06 04:25:49;;;;;;;8.97;4.63;;;;;;;4.15;71.09;96502.41;4995128;28;20178;-71
2022/01/06 04:28:15;;;;;;;7.27;4.97;;;;;;;4.19;71.02;96502.13;5022289;28;20489;-72
2022/01/06 04:30:40;;;;;;;16.57;5.80;;;;;;;4.06;71.99;96502.38;5058804;28;20278;-72
2022/01/06 04:33:06;;;;;;;14.67;5.00;;;;;;;4.17;71.47;96509.22;5067463;28;20217;-71
2022/01/06 04:35:32;;;;;;;7.97;4.90;;;;;;;4.23;70.98;96517.31;5067735;28;20292;-73
2022/01/06 04:37:57;;;;;;;11.20;5.90;;;;;;;4.34;70.97;96513.81;5077366;28;20261;-71
2022/01/06 04:40:23;;;;;;;12.87;5.40;;;;;;;4.30;71.03;96515.03;5061470;28;20221;-73
2022/01/06 04:42:49;;;;;;;7.33;4.73;;;;;;;4.26;71.16;96519.66;5071919;28;20190;-71
2022/01/06 04:45:14;;;;;;;8.40;5.20;;;;;;;4.19;71.36;96525.47;5062249;28;20212;-71
2022/01/06 04:47:40;;;;;;;6.13;4.80;;;;;;;4.39;70.73;96519.44;5056362;28;20237;-72
2022/01/06 04:50:06;;;;;;;12.70;6.03;;;;;;;4.27;71.10;96529.09;5053035;28;20179;-71
2022/01/06 04:52:31;;;;;;;6.87;4.93;;;;;;;4.27;70.96;96531.69;5054583;28;20191;-72
2022/01/06 04:54:57;;;;;;;8.33;5.40;;;;;;;4.46;70.38;96546.50;5054147;28;21009;-72
2022/01/06 04:57:23;;;;;;;9.93;5.47;;;;;;;4.09;71.02;96547.00;5055047;28;20206;-72
2022/01/06 04:59:48;;;;;;;11.87;5.97;;;;;;;4.33;70.69;96545.91;5054601;28;20603;-73
2022/01/06 05:02:14;;;;;;;6.00;5.07;;;;;;;4.39;70.77;96545.41;5055098;28;20274;-71
2022/01/06 05:04:39;;;;;;;6.90;4.63;;;;;;;4.49;70.99;96542.81;5053703;28;20679;-72
2022/01/06 05:07:05;;;;;;;8.73;5.03;;;;;;;4.43;70.53;96548.53;5055093;28;20187;-73
2022/01/06 05:09:31;;;;;;;8.13;5.00;;;;;;;4.14;71.41;96557.84;5054318;28;20262;-73
2022/01/06 05:11:56;;;;;;;11.80;5.30;;;;;;;4.53;70.18;96548.59;5070312;28;20247;-72
2022/01/06 05:14:22;;;;;;;8.33;5.30;;;;;;;4.40;70.41;96557.44;5056232;28;20574;-71
2022/01/06 05:16:47;;;;;;;8.30;5.57;;;;;;;4.60;70.55;96541.91;5055057;28;20178;-73
2022/01/06 05:19:13;;;;;;;10.70;5.80;;;;;;;4.40;70.64;96549.63;5047285;28;20185;-72
2022/01/06 05:21:38;;;;;;;10.13;5.00;;;;;;;4.29;70.31;96552.28;5053395;28;20559;-71
2022/01/06 05:24:11;;;;;;;6.40;4.73;;;;;;;4.56;69.97;96553.50;5052168;28;20178;-71
2022/01/06 05:26:38;;;;;;;12.07;5.50;;;;;;;4.34;70.82;96557.94;5052847;28;20171;-71
2022/01/06 05:29:06;;;;;;;9.37;4.67;;;;;;;4.83;68.84;96552.09;5052881;28;20491;-74
2022/01/06 05:31:32;;;;;;;9.17;4.97;;;;;;;4.30;70.11;96554.78;5070278;28;20455;-72
2022/01/06 05:33:57;;;;;;;10.73;4.93;;;;;;;4.29;70.58;96558.31;5052754;28;20417;-72
2022/01/06 05:36:23;;;;;;;7.17;4.67;;;;;;;4.22;71.14;96557.16;5051266;28;20207;-72
2022/01/06 05:38:48;;;;;;;7.23;5.37;;;;;;;4.41;70.21;96558.22;5052257;28;20273;-71
2022/01/06 05:41:14;;;;;;;9.23;4.80;;;;;;;4.32;70.76;96567.59;5060083;28;20607;-71
2022/01/06 05:43:40;;;;;;;11.70;5.23;;;;;;;4.25;71.67;96574.28;5052436;28;20230;-72
2022/01/06 05:46:05;;;;;;;11.97;4.80;;;;;;;4.68;70.07;96570.63;5052078;28;20186;-72
2022/01/06 05:48:31;;;;;;;5.27;4.73;;;;;;;4.42;70.20;96580.63;5050968;28;20238;-72
2022/01/06 05:50:56;;;;;;;9.07;5.30;;;;;;;4.52;70.08;96584.09;5051846;28;20214;-70
2022/01/06 05:53:22;;;;;;;10.50;4.60;;;;;;;4.08;71.15;96586.06;5052310;28;20266;-72
2022/01/06 05:55:48;;;;;;;17.73;5.17;;;;;;;4.00;71.81;96584.09;5050458;28;20187;-72
2022/01/06 05:58:14;;;;;;;7.07;5.10;;;;;;;4.08;71.39;96593.84;5051920;28;20184;-73
2022/01/06 06:00:40;;;;;;;8.83;4.73;;;;;;;4.40;70.37;96593.75;5051079;28;20485;-71
2022/01/06 06:03:05;;;;;;;6.20;4.43;;;;;;;4.66;69.63;96598.53;5050614;28;20682;-73
2022/01/06 06:05:31;;;;;;;7.07;4.67;;;;;;;4.59;69.48;96597.38;5052000;28;20429;-71
2022/01/06 06:07:56;;;;;;;6.40;4.60;;;;;;;3.88;72.32;96603.25;5051246;28;20194;-71
2022/01/06 06:10:22;;;;;;;6.63;4.53;;;;;;;4.09;71.97;96605.84;5050432;28;20206;-71
2022/01/06 06:12:52;;;;;;;7.80;4.53;;;;;;;3.89;71.94;96607.47;5060358;28;20186;-71
2022/01/06 06:15:19;;;;;;;6.60;4.50;;;;;;;4.08;71.43;96607.59;5049351;28;20206;-71
2022/01/06 06:17:44;;;;;;;7.07;4.97;;;;;;;3.61;73.64;96607.91;5053525;28;20490;-71
2022/01/06 06:20:10;;;;;;;5.47;4.20;;;;;;;4.39;71.85;96610.25;5060460;28;21034;-72
2022/01/06 06:22:36;;;;;;;5.93;4.77;;;;;;;4.57;70.14;96609.66;5053769;28;20749;-72
2022/01/06 06:25:02;;;;;;;11.37;5.83;;;;;;;4.64;70.31;96604.78;5051003;28;20437;-71
2022/01/06 06:27:28;;;;;;;6.60;4.87;;;;;;;4.44;70.91;96615.88;5050120;28;20429;-73
2022/01/06 06:29:53;;;;;;;6.13;4.87;;;;;;;4.28;71.43;96605.97;5051158;28;20285;-71
2022/01/06 06:32:19;;;;;;;9.97;5.40;;;;;;;3.89;72.31;96608.28;5046160;28;20779;-72
2022/01/06 06:34:44;;;;;;;6.73;4.70;;;;;;;4.11;71.86;96627.28;5051333;28;20171;-71
2022/01/06 06:37:10;;;;;;;5.67;4.57;;;;;;;4.34;70.97;96624.56;5049935;28;20705;-72
2022/01/06 06:39:35;;;;;;;8.57;5.17;;;;;;;4.11;72.18;96635.06;5044270;28;20172;-70
2022/01/06 06:42:01;;;;;;;7.93;5.10;;;;;;;3.97;72.86;96633.59;5065015;28;20205;-72
2022/01/06 06:44:26;;;;;;;7.53;5.50;;;;;;;3.81;73.16;96629.66;5055330;28;20170;-72
2022/01/06 06:46:52;;;;;;;9.23;5.00;;;;;;;3.69;73.90;96641.00;5051457;28;20346;-70
2022/01/06 06:49:18;;;;;;;7.00;4.67;;;;;;;3.95;72.83;96651.03;5051315;28;20171;-71
2022/01/06 06:51:44;;;;;;;6.67;5.13;;;;;;;4.44;71.26;96647.00;5050364;28;20198;-72
2022/01/06 06:54:09;;;;;;;8.43;5.20;;;;;;;4.53;70.56;96652.41;5059629;28;20505;-73
2022/01/06 06:56:35;;;;;;;5.80;4.80;;;;;;;4.87;69.44;96646.97;5071715;28;20419;-70
2022/01/06 06:59:00;;;;;;;10.27;5.50;;;;;;;4.80;69.20;96651.03;5070789;28;20581;-72
2022/01/06 07:01:26;;;;;;;7.80;4.70;;;;;;;4.27;70.73;96663.16;5069009;28;20210;-71
2022/01/06 07:03:51;;;;;;;10.30;5.50;;;;;;;4.37;70.89;96658.88;5067353;28;20511;-70
2022/01/06 07:06:17;;;;;;;7.07;4.50;;;;;;;4.59;69.77;96664.84;5069065;28;20361;-72
2022/01/06 07:08:43;;;;;;;10.80;5.50;;;;;;;4.50;69.46;96657.84;5066845;28;20269;-72
2022/01/06 07:11:08;;;;;;;9.20;5.37;;;;;;;4.86;68.93;96666.09;5070589;28;20676;-72
2022/01/06 07:13:34;;;;;;;12.60;4.87;;;;;;;4.69;69.33;96670.13;5069815;28;20178;-72
2022/01/06 07:15:59;;;;;;;10.60;5.37;;;;;;;4.97;68.82;96668.59;5071362;28;20178;-71
2022/01/06 07:18:25;;;;;;;8.37;5.00;;;;;;;4.57;68.98;96675.38;5071364;28;20178;-70
2022/01/06 07:20:50;;;;;;;7.63;4.57;;;;;;;4.52;70.16;96674.94;5061905;28;20210;-72
2022/01/06 07:23:16;;;;;;;12.57;5.50;;;;;;;4.59;69.65;96683.03;5060960;28;20170;-73
2022/01/06 07:25:41;;;;;;;15.63;6.63;;;;;;;4.81;68.99;96681.22;5062456;28;20291;-70
2022/01/06 07:28:07;;;;;;;13.83;6.43;;;;;;;4.75;68.40;96685.16;5061154;28;20193;-73
2022/01/06 07:30:33;;;;;;;10.13;5.53;;;;;;;4.80;67.84;96692.56;5057413;28;20182;-72
2022/01/06 07:32:59;;;;;;;16.73;4.77;;;;;;;5.19;66.76;96690.16;5063346;28;20266;-73
2022/01/06 07:35:25;;;;;;;6.33;4.67;;;;;;;5.07;67.33;96689.44;5072090;28;20432;-73
2022/01/06 07:37:51;;;;;;;7.43;4.93;;;;;;;4.91;67.57;96684.72;5074151;28;20413;-73
2022/01/06 07:40:19;;;;;;;13.13;4.63;;;;;;;4.88;68.19;96687.56;5053725;28;20464;-73
2022/01/06 07:42:45;;;;;;;9.37;4.70;;;;;;;4.65;68.44;96695.50;5070502;28;20883;-72
2022/01/06 07:45:11;;;;;;;11.40;4.77;;;;;;;4.78;69.02;96697.09;5070141;28;20425;-72
2022/01/06 07:47:43;;;;;;;13.60;6.13;;;;;;;4.47;68.92;96697.88;5070687;28;20439;-72
2022/01/06 07:50:09;;;;;;;12.57;5.70;;;;;;;4.74;68.07;96705.13;5070133;28;20470;-71
2022/01/06 07:52:35;;;;;;;13.43;5.60;;;;;;;4.89;67.24;96715.19;5067892;28;20422;-71
2022/01/06 07:55:01;;;;;;;15.77;5.10;;;;;;;4.62;68.24;96716.53;5068442;28;20205;-73
2022/01/06 07:57:26;;;;;;;11.23;5.33;;;;;;;4.75;67.44;96711.13;5070656;28;20174;-72
2022/01/06 07:59:52;;;;;;;10.00;4.33;;;;;;;4.90;67.61;96709.03;5060571;28;20945;-72
2022/01/06 08:02:17;;;;;;;17.73;4.90;;;;;;;4.78;67.20;96713.47;5068368;28;20194;-72
2022/01/06 08:04:43;;;;;;;13.10;4.90;;;;;;;4.91;66.78;96711.50;5070258;28;20273;-72
2022/01/06 08:07:09;;;;;;;12.50;4.93;;;;;;;4.61;68.06;96720.06;5070413;28;20269;-71
2022/01/06 08:09:34;;;;;;;12.33;5.20;;;;;;;4.70;67.97;96714.09;5070182;28;20178;-70
2022/01/06 08:12:00;;;;;;;8.40;4.93;;;;;;;5.12;67.34;96717.63;5070217;28;20494;-72
2022/01/06 08:14:25;;;;;;;20.97;5.50;;;;;;;5.02;66.65;96718.41;5070571;28;20189;-72
2022/01/06 08:16:51;;;;;;;12.93;5.60;;;;;;;4.80;67.02;96724.56;5070619;28;20182;-71
2022/01/06 08:19:18;;;;;;;10.03;4.90;;;;;;;4.48;68.65;96725.44;5063558;28;20179;-72
2022/01/06 08:21:44;;;;;;;13.20;5.37;;;;;;;4.65;68.18;96726.66;5068070;28;20767;-73
2022/01/06 08:24:10;;;;;;;8.27;4.27;;;;;;;4.72;68.21;96726.97;5066285;28;20911;-72
2022/01/06 08:26:35;;;;;;;14.60;4.80;;;;;;;4.56;67.59;96733.44;5066026;28;20514;-71
2022/01/06 08:29:01;;;;;;;6.13;4.60;;;;;;;4.64;68.43;96731.97;5073840;28;20187;-72
2022/01/06 08:31:26;;;;;;;11.67;5.80;;;;;;;4.78;68.01;96738.63;5072648;28;20564;-72
2022/01/06 08:33:52;;;;;;;7.97;5.43;;;;;;;4.81;68.36;96736.59;5070698;28;20174;-72
2022/01/06 08:36:17;;;;;;;14.97;5.10;;;;;;;4.82;67.95;96740.00;5074104;28;20253;-72
2022/01/06 08:38:43;;;;;;;14.67;5.70;;;;;;;4.42;69.55;96737.13;5076886;28;20182;-73
2022/01/06 08:41:09;;;;;;;8.43;5.17;;;;;;;4.57;69.27;96744.63;5071844;28;20283;-72
2022/01/06 08:43:35;;;;;;;15.43;5.20;;;;;;;4.55;69.21;96739.56;5079837;28;20183;-73
2022/01/06 08:46:01;;;;;;;12.70;4.70;;;;;;;4.22;70.01;96737.94;5078862;28;20186;-71
2022/01/06 08:48:27;;;;;;;7.80;4.70;;;;;;;4.44;69.28;96745.63;5071431;28;20417;-72
2022/01/06 08:50:53;;;;;;;12.37;5.33;;;;;;;4.46;68.96;96745.53;5077775;28;20550;-71
2022/01/06 08:53:19;;;;;;;16.03;4.70;;;;;;;4.39;68.85;96747.78;5068253;28;21010;-72
2022/01/06 08:55:47;;;;;;;9.00;4.97;;;;;;;4.66;68.94;96753.44;5073710;28;20504;-72
2022/01/06 08:58:14;;;;;;;18.83;4.37;;;;;;;4.52;68.60;96757.16;5071144;28;20423;-72
2022/01/06 09:00:40;;;;;;;10.60;5.83;;;;;;;5.04;66.99;96759.81;5065364;28;20932;-72
2022/01/06 09:03:06;;;;;;;12.90;5.20;;;;;;;4.86;67.19;96757.78;5073063;28;20431;-72
2022/01/06 09:05:33;;;;;;;8.07;4.70;;;;;;;5.00;67.17;96761.84;5073575;28;20451;-73
2022/01/06 09:07:59;;;;;;;9.93;4.53;;;;;;;4.87;66.87;96769.81;5073296;28;20417;-71
2022/01/06 09:10:29;;;;;;;6.40;4.13;;;;;;;4.42;69.10;96778.66;5073120;28;20536;-72
2022/01/06 09:12:55;;;;;;;11.10;4.63;;;;;;;4.42;68.92;96768.28;5072905;28;20831;-72
2022/01/06 09:15:21;;;;;;;14.47;5.87;;;;;;;4.69;68.22;96764.38;5064456;28;20417;-71
2022/01/06 09:17:46;;;;;;;15.10;5.03;;;;;;;5.06;66.66;96771.72;5070534;28;20505;-70
2022/01/06 09:20:12;;;;;;;7.67;5.00;;;;;;;5.26;65.80;96774.44;5072928;28;20867;-71
2022/01/06 09:22:38;;;;;;;16.77;5.50;;;;;;;4.65;67.18;96778.59;5066345;28;20567;-72
2022/01/06 09:25:04;;;;;;;7.20;4.57;;;;;;;5.08;66.89;96780.22;5070936;28;20187;-69
2022/01/06 09:27:30;;;;;;;9.03;5.53;;;;;;;5.28;66.89;96785.53;5073241;28;20174;-72
2022/01/06 09:29:56;;;;;;;11.50;5.30;;;;;;;4.93;67.15;96789.28;5072394;28;20175;-71
2022/01/06 09:32:22;;;;;;;13.50;4.50;;;;;;;5.19;65.52;96791.47;5067019;28;20787;-73
2022/01/06 09:34:47;;;;;;;8.77;4.10;;;;;;;4.96;66.33;96799.41;5069932;28;20429;-72
2022/01/06 09:37:14;;;;;;;6.10;4.13;;;;;;;4.76;66.34;96799.28;5072490;28;20282;-72
2022/01/06 09:39:40;;;;;;;7.93;4.30;;;;;;;5.18;66.14;96802.81;5072533;28;20190;-72
2022/01/06 09:42:06;;;;;;;7.03;4.07;;;;;;;4.85;66.14;96797.69;5072131;28;20461;-71
2022/01/06 09:44:31;;;;;;;8.67;3.70;;;;;;;4.93;66.17;96791.88;5067842;28;20498;-72
2022/01/06 09:46:57;;;;;;;12.27;4.50;;;;;;;4.78;66.80;96804.34;5069625;28;20247;-71
2022/01/06 09:49:24;;;;;;;6.40;3.50;;;;;;;4.99;66.15;96806.97;5067192;28;20361;-71
2022/01/06 09:51:51;;;;;;;10.70;3.87;;;;;;;4.88;66.44;96810.44;5067868;28;20514;-71
2022/01/06 09:54:17;;;;;;;7.10;3.70;;;;;;;4.51;66.27;96808.22;5062241;28;20418;-72
2022/01/06 09:56:43;;;;;;;15.50;4.10;;;;;;;4.59;67.09;96811.06;5067728;28;20493;-71
2022/01/06 09:59:08;;;;;;;11.10;4.07;;;;;;;4.34;67.27;96814.78;5072130;28;20425;-71
2022/01/06 10:01:34;;;;;;;11.03;3.97;;;;;;;4.34;67.36;96812.19;5071950;28;20285;-71
2022/01/06 10:04:00;;;;;;;8.60;4.40;;;;;;;4.62;67.17;96809.97;5064028;28;20273;-71
2022/01/06 10:06:27;;;;;;;9.33;4.27;;;;;;;4.90;65.19;96818.91;5072184;28;20177;-72
2022/01/06 10:08:59;;;;;;;6.80;3.90;;;;;;;4.93;65.71;96812.63;5072158;28;20244;-72
2022/01/06 10:11:31;;;;;;;11.60;4.03;;;;;;;4.92;64.89;96811.00;5065231;28;20490;-73
2022/01/06 10:14:06;;;;;;;11.27;3.57;;;;;;;5.28;63.59;96803.72;5071336;28;20443;-73
2022/01/06 10:16:33;;;;;;;8.60;3.70;;;;;;;5.11;65.19;96809.47;5071566;28;20505;-73
2022/01/06 10:19:00;;;;;;;7.03;3.40;;;;;;;5.15;64.90;96813.47;5063538;28;20445;-72
2022/01/06 10:21:29;;;;;;;5.80;3.60;;;;;;;5.58;63.61;96815.06;5072193;28;20521;-72
2022/01/06 10:24:07;;;;;;;7.60;3.60;;;;;;;5.49;64.55;96813.25;5059753;28;20417;-72
2022/01/06 10:26:33;;;;;;;8.47;3.67;;;;;;;5.69;63.77;96809.75;5071905;28;20421;-73
2022/01/06 10:28:59;;;;;;;9.00;3.80;;;;;;;5.46;63.57;96813.50;5062609;28;20520;-73
2022/01/06 10:31:30;;;;;;;12.87;3.63;;;;;;;5.74;63.37;96811.97;5070726;28;20778;-74
2022/01/06 10:33:56;;;;;;;9.03;3.87;;;;;;;5.82;62.60;96808.69;5067033;28;20463;-72
2022/01/06 10:36:31;;;;;;;13.00;4.53;;;;;;;6.02;61.65;96814.00;5063741;28;21030;-71
2022/01/06 10:39:01;;;;;;;10.17;4.20;;;;;;;5.76;62.23;96812.66;5070001;28;20486;-71
2022/01/06 10:41:28;;;;;;;11.30;4.20;;;;;;;5.91;61.49;96807.94;5071722;28;21075;-72
2022/01/06 10:43:56;;;;;;;13.93;4.50;;;;;;;5.56;62.93;96814.34;5071601;28;20935;-72
2022/01/06 10:46:32;;;;;;;11.47;3.87;;;;;;;6.22;62.02;96812.28;5070372;28;20435;-71
2022/01/06 10:49:00;;;;;;;6.60;3.10;;;;;;;5.66;61.62;96811.81;5068698;28;20508;-72
2022/01/06 10:51:39;;;;;;;4.70;3.07;;;;;;;5.59;61.84;96826.28;5071006;28;20447;-71
2022/01/06 10:54:09;;;;;;;11.47;2.93;;;;;;;5.33;61.59;96818.91;5063504;28;20431;-73
2022/01/06 10:56:35;;;;;;;12.83;3.43;;;;;;;5.18;62.01;96818.41;5065598;28;20863;-73
2022/01/06 10:59:00;;;;;;;17.20;3.10;;;;;;;5.06;62.71;96826.25;5060365;28;20509;-73
2022/01/06 11:01:26;;;;;;;10.17;3.27;;;;;;;4.82;63.44;96821.34;5071111;28;20388;-71
2022/01/06 11:03:52;;;;;;;11.97;3.13;;;;;;;4.90;63.36;96824.13;5071619;28;20253;-72
2022/01/06 11:06:17;;;;;;;16.27;3.80;;;;;;;4.85;62.81;96828.03;5069718;28;20225;-72
2022/01/06 11:08:43;;;;;;;8.73;3.50;;;;;;;4.75;63.26;96843.53;5071675;28;20224;-73
2022/01/06 11:13:44;;;;;;;12.93;3.50;;;;;;;4.80;63.73;96844.00;5071428;28;20446;-72
2022/01/06 11:16:14;;;;;;;16.03;3.27;;;;;;;5.12;62.67;96842.31;5070028;28;20424;-73
2022/01/06 11:18:42;;;;;;;15.70;3.80;;;;;;;5.47;61.65;96835.94;5070723;28;20429;-71
2022/01/06 11:21:11;;;;;;;9.40;3.07;;;;;;;5.37;61.67;96844.50;5071457;28;20460;-72
2022/01/06 11:23:36;;;;;;;7.70;3.23;;;;;;;5.47;61.43;96848.94;5061103;28;21204;-73
2022/01/06 11:26:15;;;;;;;7.53;3.20;;;;;;;5.72;60.77;96833.84;5070237;28;20420;-72
2022/01/06 11:28:42;;;;;;;6.70;3.10;;;;;;;5.99;58.95;96841.06;5071411;28;20185;-72
2022/01/06 11:31:19;;;;;;;11.50;3.13;;;;;;;5.40;60.47;96843.44;5060294;28;20445;-72
2022/01/06 11:33:47;;;;;;;9.70;3.07;;;;;;;5.81;60.30;96831.31;5053795;28;20440;-73
2022/01/06 11:36:20;;;;;;;10.43;3.30;;;;;;;6.06;58.64;96837.03;5070385;28;20448;-73
2022/01/06 11:38:48;;;;;;;7.87;3.00;;;;;;;5.59;58.90;96844.50;5071395;28;20923;-70
2022/01/06 11:41:14;;;;;;;14.90;3.93;;;;;;;5.54;59.58;96845.69;5068727;28;20471;-72
2022/01/06 11:43:42;;;;;;;13.20;2.90;;;;;;;5.49;59.67;96834.03;5064550;28;20424;-72
2022/01/06 11:46:09;;;;;;;17.00;3.23;;;;;;;5.53;59.95;96836.25;5051087;28;20507;-72
2022/01/06 11:48:50;;;;;;;8.30;2.83;;;;;;;4.97;62.22;96834.00;5065948;28;20413;-72